createdAt,value
2023-03-27T00:00:56.741Z,3.56
2023-03-27T00:01:56.477Z,3.63
2023-03-27T00:02:56.496Z,3.58
2023-03-27T00:03:56.485Z,3.56
2023-03-27T00:04:56.434Z,3.56
2023-03-27T00:05:56.445Z,3.55
2023-03-27T00:06:56.415Z,3.56
2023-03-27T00:07:56.758Z,3.51
2023-03-27T00:08:56.415Z,3.58
2023-03-27T00:09:56.399Z,3.44
2023-03-27T00:10:56.526Z,3.44
2023-03-27T00:11:56.401Z,3.51
2023-03-27T00:12:56.372Z,3.58
2023-03-27T00:13:56.366Z,3.58
2023-03-27T00:14:56.356Z,3.60
2023-03-27T00:15:56.353Z,3.53
2023-03-27T00:16:56.385Z,3.55
2023-03-27T00:17:56.393Z,3.65
2023-03-27T00:18:56.330Z,3.56
2023-03-27T00:19:56.328Z,3.59
2023-03-27T00:20:56.503Z,3.51
2023-03-27T00:21:56.336Z,3.59
2023-03-27T00:22:56.454Z,3.60
2023-03-27T00:23:56.299Z,3.50
2023-03-27T00:24:56.290Z,3.45
2023-03-27T00:25:56.281Z,3.45
2023-03-27T00:26:56.288Z,3.48
2023-03-27T00:27:56.268Z,3.44
2023-03-27T00:28:56.263Z,3.50
2023-03-27T00:29:56.258Z,3.50
2023-03-27T00:30:56.426Z,3.48
2023-03-27T00:31:56.267Z,3.47
2023-03-27T00:32:56.318Z,3.45
2023-03-27T00:33:56.236Z,3.41
2023-03-27T00:34:56.219Z,3.40
2023-03-27T00:35:56.309Z,3.36
2023-03-27T00:36:56.222Z,3.45
2023-03-27T00:37:56.225Z,3.40
2023-03-27T00:38:56.198Z,3.41
2023-03-27T00:39:56.184Z,3.29
2023-03-27T00:40:56.516Z,3.32
2023-03-27T00:41:56.178Z,3.32
2023-03-27T00:42:56.173Z,3.23
2023-03-27T00:43:56.157Z,3.29
2023-03-27T00:44:56.152Z,3.29
2023-03-27T00:45:56.155Z,3.28
2023-03-27T00:46:56.139Z,3.26
2023-03-27T00:47:56.157Z,3.28
2023-03-27T00:48:56.133Z,3.34
2023-03-27T00:49:56.119Z,3.18
2023-03-27T00:50:56.291Z,3.18
2023-03-27T00:51:56.103Z,3.28
2023-03-27T00:52:56.097Z,3.16
2023-03-27T00:53:56.139Z,3.23
2023-03-27T00:54:56.089Z,3.31
2023-03-27T00:55:56.076Z,3.18
2023-03-27T00:56:56.085Z,3.26
2023-03-27T00:57:56.062Z,3.28
2023-03-27T00:58:56.065Z,3.16
2023-03-27T00:59:56.050Z,3.13
2023-03-27T01:00:56.261Z,3.18
2023-03-27T01:01:56.131Z,3.16
2023-03-27T01:02:56.178Z,3.26
2023-03-27T01:03:56.067Z,3.18
2023-03-27T01:04:56.018Z,3.28
2023-03-27T01:05:56.008Z,3.18
2023-03-27T01:06:56.009Z,3.23
2023-03-27T01:08:00.683Z,3.18
2023-03-27T01:08:55.987Z,3.05
2023-03-27T01:09:56.001Z,3.08
2023-03-27T01:10:56.127Z,3.11
2023-03-27T01:11:55.965Z,3.16
2023-03-27T01:12:55.964Z,3.14
2023-03-27T01:13:55.953Z,3.08
2023-03-27T01:14:55.946Z,3.08
2023-03-27T01:15:55.992Z,3.11
2023-03-27T01:16:55.932Z,3.00
2023-03-27T01:17:55.974Z,3.08
2023-03-27T01:18:55.915Z,3.08
2023-03-27T01:19:55.909Z,3.14
2023-03-27T01:20:56.123Z,3.01
2023-03-27T01:21:55.898Z,3.07
2023-03-27T01:22:55.889Z,3.10
2023-03-27T01:23:59.518Z,3.03
2023-03-27T01:24:55.890Z,3.08
2023-03-27T01:25:55.896Z,3.11
2023-03-27T01:26:55.867Z,3.14
2023-03-27T01:27:55.855Z,3.07
2023-03-27T01:28:55.848Z,2.98
2023-03-27T01:29:55.845Z,3.01
2023-03-27T01:30:55.964Z,3.01
2023-03-27T01:31:55.827Z,3.01
2023-03-27T01:32:55.894Z,3.00
2023-03-27T01:33:55.818Z,2.90
2023-03-27T01:35:01.236Z,2.90
2023-03-27T01:35:55.821Z,3.01
2023-03-27T01:36:55.792Z,2.98
2023-03-27T01:37:55.807Z,3.04
2023-03-27T01:38:55.786Z,3.05
2023-03-27T01:39:55.776Z,3.03
2023-03-27T01:40:55.950Z,2.98
2023-03-27T01:41:55.778Z,3.01
2023-03-27T01:42:55.776Z,3.10
2023-03-27T01:43:55.746Z,3.13
2023-03-27T01:44:55.740Z,3.07
2023-03-27T01:45:55.734Z,3.05
2023-03-27T01:46:55.761Z,3.05
2023-03-27T01:47:55.771Z,3.11
2023-03-27T01:48:55.713Z,3.11
2023-03-27T01:49:55.707Z,3.03
2023-03-27T01:50:55.866Z,3.07
2023-03-27T01:51:55.692Z,3.10
2023-03-27T01:52:55.696Z,3.11
2023-03-27T01:53:55.678Z,3.08
2023-03-27T01:54:55.686Z,2.98
2023-03-27T01:55:55.666Z,3.03
2023-03-27T01:56:55.678Z,2.97
2023-03-27T01:57:55.673Z,3.03
2023-03-27T01:58:55.646Z,3.01
2023-03-27T01:59:55.653Z,3.01
2023-03-27T02:00:55.664Z,3.04
2023-03-27T02:01:55.624Z,2.97
2023-03-27T02:02:55.665Z,3.01
2023-03-27T02:03:55.609Z,3.01
2023-03-27T02:04:55.664Z,3.00
2023-03-27T02:05:55.596Z,3.07
2023-03-27T02:06:55.597Z,3.03
2023-03-27T02:07:55.603Z,3.00
2023-03-27T02:08:55.579Z,2.98
2023-03-27T02:09:55.575Z,3.03
2023-03-27T02:10:55.745Z,2.97
2023-03-27T02:11:55.555Z,2.87
2023-03-27T02:12:55.551Z,3.01
2023-03-27T02:13:55.568Z,2.98
2023-03-27T02:14:55.541Z,3.01
2023-03-27T02:15:55.567Z,3.00
2023-03-27T02:16:55.528Z,3.01
2023-03-27T02:17:55.549Z,2.92
2023-03-27T02:18:55.510Z,3.00
2023-03-27T02:19:55.509Z,2.97
2023-03-27T02:20:55.684Z,3.00
2023-03-27T02:21:55.486Z,2.98
2023-03-27T02:22:55.489Z,3.03
2023-03-27T02:23:55.473Z,3.03
2023-03-27T02:24:55.474Z,3.03
2023-03-27T02:25:55.464Z,3.04
2023-03-27T02:26:55.482Z,3.00
2023-03-27T02:27:55.446Z,3.01
2023-03-27T02:28:55.448Z,3.00
2023-03-27T02:29:55.489Z,3.03
2023-03-27T02:31:06.647Z,2.90
2023-03-27T02:31:55.489Z,2.98
2023-03-27T02:32:55.452Z,2.98
2023-03-27T02:33:55.410Z,2.95
2023-03-27T02:34:55.400Z,2.85
2023-03-27T02:35:55.440Z,2.87
2023-03-27T02:36:55.469Z,2.85
2023-03-27T02:37:55.379Z,2.92
2023-03-27T02:38:55.378Z,2.92
2023-03-27T02:39:55.370Z,2.92
2023-03-27T02:40:55.687Z,2.77
2023-03-27T02:41:55.350Z,2.85
2023-03-27T02:42:55.346Z,2.92
2023-03-27T02:43:55.335Z,2.83
2023-03-27T02:44:55.331Z,2.85
2023-03-27T02:45:55.428Z,2.92
2023-03-27T02:46:55.321Z,2.85
2023-03-27T02:47:55.326Z,2.77
2023-03-27T02:48:55.302Z,2.82
2023-03-27T02:49:55.306Z,2.86
2023-03-27T02:50:55.560Z,2.83
2023-03-27T02:51:55.282Z,2.86
2023-03-27T02:52:55.284Z,2.90
2023-03-27T02:53:55.267Z,2.86
2023-03-27T02:54:55.265Z,2.85
2023-03-27T02:55:55.254Z,2.86
2023-03-27T02:56:55.319Z,2.85
2023-03-27T02:57:55.244Z,2.79
2023-03-27T02:58:55.234Z,2.83
2023-03-27T02:59:55.229Z,2.83
2023-03-27T03:00:55.547Z,2.77
2023-03-27T03:01:55.348Z,2.77
2023-03-27T03:02:55.274Z,2.67
2023-03-27T03:03:55.199Z,2.69
2023-03-27T03:04:55.193Z,2.75
2023-03-27T03:05:55.186Z,2.67
2023-03-27T03:06:55.184Z,2.64
2023-03-27T03:07:55.173Z,2.68
2023-03-27T03:08:55.166Z,2.69
2023-03-27T03:09:55.159Z,2.60
2023-03-27T03:10:55.370Z,2.67
2023-03-27T03:11:55.148Z,2.65
2023-03-27T03:12:55.394Z,2.72
2023-03-27T03:13:55.141Z,2.68
2023-03-27T03:14:55.130Z,2.60
2023-03-27T03:15:55.121Z,2.57
2023-03-27T03:16:55.131Z,2.67
2023-03-27T03:17:55.238Z,2.74
2023-03-27T03:18:55.098Z,2.67
2023-03-27T03:19:55.092Z,2.62
2023-03-27T03:20:55.283Z,2.60
2023-03-27T03:21:55.084Z,2.50
2023-03-27T03:22:55.069Z,2.57
2023-03-27T03:23:58.099Z,2.50
2023-03-27T03:24:55.056Z,2.56
2023-03-27T03:25:55.049Z,2.54
2023-03-27T03:26:55.040Z,2.61
2023-03-27T03:27:55.030Z,2.60
2023-03-27T03:29:00.292Z,2.62
2023-03-27T03:29:55.022Z,2.56
2023-03-27T03:30:55.338Z,2.47
2023-03-27T03:31:55.005Z,2.44
2023-03-27T03:32:55.090Z,2.51
2023-03-27T03:33:55.014Z,2.46
2023-03-27T03:34:54.984Z,2.49
2023-03-27T03:35:55.036Z,2.50
2023-03-27T03:36:54.975Z,2.51
2023-03-27T03:37:54.975Z,2.47
2023-03-27T03:38:54.960Z,2.56
2023-03-27T03:39:54.947Z,2.49
2023-03-27T03:40:55.470Z,2.50
2023-03-27T03:41:54.934Z,2.47
2023-03-27T03:42:54.935Z,2.51
2023-03-27T03:43:54.924Z,2.50
2023-03-27T03:44:54.918Z,2.42
2023-03-27T03:45:54.951Z,2.39
2023-03-27T03:46:54.900Z,2.32
2023-03-27T03:47:54.894Z,2.18
2023-03-27T03:48:54.904Z,2.11
2023-03-27T03:49:55.014Z,2.13
2023-03-27T03:50:55.169Z,2.02
2023-03-27T03:52:03.702Z,2.00
2023-03-27T03:52:54.863Z,1.94
2023-03-27T03:53:54.872Z,1.92
2023-03-27T03:54:54.849Z,1.77
2023-03-27T03:55:54.835Z,1.70
2023-03-27T03:56:54.859Z,1.58
2023-03-27T03:57:54.822Z,1.52
2023-03-27T03:58:54.816Z,1.50
2023-03-27T03:59:54.813Z,1.38
2023-03-27T04:00:55.069Z,1.40
2023-03-27T04:01:54.809Z,1.50
2023-03-27T04:02:54.892Z,1.56
2023-03-27T04:03:54.798Z,1.59
2023-03-27T04:04:54.781Z,1.66
2023-03-27T04:05:54.824Z,1.80
2023-03-27T04:06:54.759Z,1.89
2023-03-27T04:07:54.746Z,1.95
2023-03-27T04:08:54.746Z,2.00
2023-03-27T04:09:54.734Z,1.95
2023-03-27T04:10:54.961Z,2.00
2023-03-27T04:11:54.734Z,2.02
2023-03-27T04:12:54.739Z,2.04
2023-03-27T04:13:54.911Z,2.02
2023-03-27T04:14:54.708Z,2.02
2023-03-27T04:15:54.712Z,2.10
2023-03-27T04:16:54.685Z,2.11
2023-03-27T04:17:54.770Z,2.18
2023-03-27T04:18:54.823Z,2.20
2023-03-27T04:19:54.663Z,2.17
2023-03-27T04:20:54.788Z,2.13
2023-03-27T04:21:54.669Z,2.07
2023-03-27T04:22:54.650Z,2.04
2023-03-27T04:23:54.637Z,2.08
2023-03-27T04:24:54.635Z,2.07
2023-03-27T04:25:54.642Z,2.10
2023-03-27T04:26:54.620Z,2.10
2023-03-27T04:27:54.614Z,2.04
2023-03-27T04:28:54.604Z,2.00
2023-03-27T04:29:54.596Z,2.10
2023-03-27T04:30:54.699Z,2.10
2023-03-27T04:31:54.581Z,1.99
2023-03-27T04:32:54.664Z,2.06
2023-03-27T04:33:54.576Z,2.06
2023-03-27T04:34:54.586Z,2.08
2023-03-27T04:36:06.178Z,2.08
2023-03-27T04:36:54.547Z,2.06
2023-03-27T04:37:54.645Z,2.13
2023-03-27T04:38:54.545Z,2.20
2023-03-27T04:39:54.543Z,2.15
2023-03-27T04:40:54.657Z,2.17
2023-03-27T04:41:54.520Z,2.11
2023-03-27T04:42:54.510Z,2.17
2023-03-27T04:43:54.502Z,2.22
2023-03-27T04:44:54.498Z,2.25
2023-03-27T04:45:54.493Z,2.22
2023-03-27T04:46:54.521Z,2.22
2023-03-27T04:47:54.684Z,2.29
2023-03-27T04:48:54.467Z,2.25
2023-03-27T04:49:54.459Z,2.15
2023-03-27T04:50:54.699Z,2.29
2023-03-27T04:51:54.460Z,2.28
2023-03-27T04:52:54.442Z,2.32
2023-03-27T04:53:54.505Z,2.29
2023-03-27T04:54:54.432Z,2.29
2023-03-27T04:55:54.419Z,2.25
2023-03-27T04:56:54.447Z,2.32
2023-03-27T04:57:54.411Z,2.32
2023-03-27T04:58:54.400Z,2.28
2023-03-27T04:59:54.396Z,2.32
2023-03-27T05:00:54.505Z,2.33
2023-03-27T05:01:54.388Z,2.35
2023-03-27T05:02:54.440Z,2.31
2023-03-27T05:03:54.383Z,2.33
2023-03-27T05:04:54.356Z,2.29
2023-03-27T05:05:54.348Z,2.20
2023-03-27T05:06:54.347Z,2.15
2023-03-27T05:07:54.337Z,2.24
2023-03-27T05:08:54.326Z,2.22
2023-03-27T05:09:54.335Z,2.15
2023-03-27T05:10:54.444Z,2.24
2023-03-27T05:11:54.307Z,2.18
2023-03-27T05:12:55.805Z,2.18
2023-03-27T05:13:54.688Z,2.20
2023-03-27T05:14:54.288Z,2.17
2023-03-27T05:15:54.278Z,2.10
2023-03-27T05:16:54.285Z,2.18
2023-03-27T05:17:54.356Z,2.22
2023-03-27T05:18:54.258Z,2.22
2023-03-27T05:19:54.258Z,2.17
2023-03-27T05:20:54.316Z,2.31
2023-03-27T05:21:54.240Z,2.29
2023-03-27T05:22:54.250Z,2.33
2023-03-27T05:23:54.222Z,2.32
2023-03-27T05:24:54.214Z,2.32
2023-03-27T05:26:00.363Z,2.38
2023-03-27T05:26:54.203Z,2.36
2023-03-27T05:27:54.197Z,2.39
2023-03-27T05:28:54.194Z,2.35
2023-03-27T05:29:54.182Z,2.38
2023-03-27T05:30:54.258Z,2.36
2023-03-27T05:31:54.163Z,2.39
2023-03-27T05:32:54.355Z,2.49
2023-03-27T05:33:54.170Z,2.50
2023-03-27T05:34:54.157Z,2.51
2023-03-27T05:35:54.184Z,2.51
2023-03-27T05:36:54.131Z,2.53
2023-03-27T05:37:54.126Z,2.61
2023-03-27T05:38:54.124Z,2.57
2023-03-27T05:39:54.109Z,2.54
2023-03-27T05:40:54.211Z,2.72
2023-03-27T05:41:54.230Z,2.74
2023-03-27T05:42:54.097Z,2.68
2023-03-27T05:43:54.087Z,2.67
2023-03-27T05:44:54.072Z,2.72
2023-03-27T05:45:54.140Z,2.72
2023-03-27T05:46:54.058Z,2.72
2023-03-27T05:47:54.086Z,2.89
2023-03-27T05:48:54.048Z,2.79
2023-03-27T05:49:54.039Z,2.83
2023-03-27T05:50:54.272Z,2.90
2023-03-27T05:51:54.059Z,2.93
2023-03-27T05:52:54.024Z,2.92
2023-03-27T05:53:54.012Z,2.93
2023-03-27T05:54:54.012Z,2.89
2023-03-27T05:56:02.664Z,2.92
2023-03-27T05:56:54.028Z,2.79
2023-03-27T05:57:54.004Z,2.82
2023-03-27T05:58:53.981Z,2.80
2023-03-27T05:59:53.975Z,2.83
2023-03-27T06:00:54.159Z,2.79
2023-03-27T06:01:53.961Z,2.86
2023-03-27T06:02:54.005Z,2.86
2023-03-27T06:03:54.046Z,2.92
2023-03-27T06:04:53.943Z,2.86
2023-03-27T06:05:53.936Z,2.92
2023-03-27T06:06:53.934Z,2.79
2023-03-27T06:07:53.921Z,3.00
2023-03-27T06:08:53.913Z,2.97
2023-03-27T06:09:53.908Z,2.98
2023-03-27T06:10:53.943Z,2.98
2023-03-27T06:11:53.891Z,3.00
2023-03-27T06:12:53.886Z,3.04
2023-03-27T06:13:53.935Z,3.01
2023-03-27T06:14:53.876Z,3.04
2023-03-27T06:15:53.953Z,2.97
2023-03-27T06:16:53.856Z,2.89
2023-03-27T06:17:53.862Z,3.00
2023-03-27T06:18:53.857Z,2.89
2023-03-27T06:19:53.838Z,3.04
2023-03-27T06:20:53.889Z,3.03
2023-03-27T06:21:53.827Z,3.05
2023-03-27T06:22:53.819Z,3.07
2023-03-27T06:23:53.809Z,3.04
2023-03-27T06:24:53.809Z,3.04
2023-03-27T06:25:53.819Z,3.08
2023-03-27T06:26:53.790Z,3.21
2023-03-27T06:27:53.814Z,3.18
2023-03-27T06:28:53.779Z,3.16
2023-03-27T06:29:53.796Z,3.29
2023-03-27T06:30:53.900Z,3.32
2023-03-27T06:31:53.773Z,3.28
2023-03-27T06:32:53.783Z,3.36
2023-03-27T06:33:53.747Z,3.28
2023-03-27T06:34:53.735Z,3.34
2023-03-27T06:35:53.897Z,3.32
2023-03-27T06:36:53.728Z,3.40
2023-03-27T06:37:53.724Z,3.41
2023-03-27T06:38:53.714Z,3.47
2023-03-27T06:39:53.702Z,3.48
2023-03-27T06:40:53.702Z,3.47
2023-03-27T06:41:53.702Z,3.36
2023-03-27T06:42:53.688Z,3.50
2023-03-27T06:43:53.677Z,3.50
2023-03-27T06:44:53.671Z,3.45
2023-03-27T06:45:53.724Z,3.44
2023-03-27T06:46:53.688Z,3.44
2023-03-27T06:47:55.597Z,3.45
2023-03-27T06:48:53.682Z,3.45
2023-03-27T06:49:53.639Z,3.48
2023-03-27T06:50:53.631Z,3.37
2023-03-27T06:51:53.625Z,3.36
2023-03-27T06:52:53.632Z,3.45
2023-03-27T06:53:53.618Z,3.34
2023-03-27T06:54:53.604Z,3.42
2023-03-27T06:55:53.620Z,3.40
2023-03-27T06:56:53.641Z,3.40
2023-03-27T06:57:53.586Z,3.36
2023-03-27T06:58:53.578Z,3.48
2023-03-27T06:59:53.580Z,3.44
2023-03-27T07:00:53.566Z,3.50
2023-03-27T07:01:53.626Z,3.45
2023-03-27T07:02:53.591Z,3.60
2023-03-27T07:03:53.543Z,3.48
2023-03-27T07:05:03.775Z,3.51
2023-03-27T07:05:53.608Z,3.48
2023-03-27T07:06:53.515Z,3.50
2023-03-27T07:07:53.509Z,3.60
2023-03-27T07:08:53.500Z,3.65
2023-03-27T07:09:53.495Z,3.73
2023-03-27T07:11:09.946Z,3.74
2023-03-27T07:11:53.480Z,3.88
2023-03-27T07:12:53.508Z,3.99
2023-03-27T07:13:53.487Z,3.99
2023-03-27T07:14:53.458Z,4.12
2023-03-27T07:15:53.511Z,4.20
2023-03-27T07:16:53.476Z,4.20
2023-03-27T07:17:53.499Z,4.16
2023-03-27T07:18:53.430Z,4.28
2023-03-27T07:19:53.427Z,4.35
2023-03-27T07:20:53.432Z,4.49
2023-03-27T07:21:53.418Z,4.59
2023-03-27T07:22:55.526Z,4.59
2023-03-27T07:23:53.401Z,4.67
2023-03-27T07:24:53.389Z,4.73
2023-03-27T07:25:53.402Z,4.73
2023-03-27T07:26:53.377Z,4.77
2023-03-27T07:27:53.371Z,4.90
2023-03-27T07:28:53.362Z,4.93
2023-03-27T07:29:54.371Z,5.05
2023-03-27T07:30:53.366Z,5.00
2023-03-27T07:31:57.556Z,5.10
2023-03-27T07:32:53.397Z,5.11
2023-03-27T07:33:53.412Z,5.11
2023-03-27T07:34:53.334Z,5.11
2023-03-27T07:35:53.453Z,5.20
2023-03-27T07:36:53.667Z,5.18
2023-03-27T07:37:53.316Z,5.23
2023-03-27T07:38:53.319Z,5.26
2023-03-27T07:39:53.297Z,5.28
2023-03-27T07:40:53.295Z,5.29
2023-03-27T07:41:53.283Z,5.30
2023-03-27T07:42:53.283Z,5.20
2023-03-27T07:43:53.283Z,5.32
2023-03-27T07:44:53.263Z,5.20
2023-03-27T07:45:53.305Z,5.36
2023-03-27T07:46:53.254Z,5.44
2023-03-27T07:47:53.314Z,5.53
2023-03-27T07:48:53.247Z,5.47
2023-03-27T07:49:53.255Z,5.62
2023-03-27T07:50:56.091Z,5.53
2023-03-27T07:51:53.234Z,5.69
2023-03-27T07:52:53.218Z,5.61
2023-03-27T07:53:53.213Z,5.57
2023-03-27T07:54:53.222Z,5.62
2023-03-27T07:55:53.209Z,5.65
2023-03-27T07:56:53.276Z,5.66
2023-03-27T07:58:53.226Z,5.69
2023-03-27T07:59:53.181Z,5.62
2023-03-27T08:00:53.232Z,5.59
2023-03-27T08:01:53.169Z,5.65
2023-03-27T08:02:53.390Z,5.56
2023-03-27T08:03:53.282Z,5.57
2023-03-27T08:04:53.315Z,5.72
2023-03-27T08:05:53.167Z,5.84
2023-03-27T08:06:53.158Z,5.90
2023-03-27T08:07:53.136Z,5.94
2023-03-27T08:08:53.136Z,5.83
2023-03-27T08:09:53.128Z,5.71
2023-03-27T08:10:53.120Z,5.61
2023-03-27T08:11:53.115Z,5.71
2023-03-27T08:12:53.108Z,5.69
2023-03-27T08:13:53.107Z,5.56
2023-03-27T08:14:53.102Z,5.56
2023-03-27T08:15:53.117Z,5.43
2023-03-27T08:16:55.829Z,5.46
2023-03-27T08:17:53.092Z,5.46
2023-03-27T08:18:53.077Z,5.57
2023-03-27T08:19:53.074Z,5.62
2023-03-27T08:20:53.071Z,5.65
2023-03-27T08:21:53.100Z,5.86
2023-03-27T08:22:53.064Z,5.80
2023-03-27T08:23:53.046Z,5.72
2023-03-27T08:24:53.039Z,5.76
2023-03-27T08:25:53.118Z,5.64
2023-03-27T08:26:53.037Z,5.62
2023-03-27T08:27:53.020Z,5.54
2023-03-27T08:28:53.017Z,5.39
2023-03-27T08:29:53.012Z,5.54
2023-03-27T08:30:53.047Z,5.61
2023-03-27T08:31:53.002Z,5.65
2023-03-27T08:32:53.010Z,5.68
2023-03-27T08:33:52.986Z,5.66
2023-03-27T08:34:52.978Z,5.94
2023-03-27T08:35:53.014Z,5.86
2023-03-27T08:36:52.966Z,5.73
2023-03-27T08:37:52.985Z,5.61
2023-03-27T08:38:52.954Z,5.59
2023-03-27T08:39:52.949Z,5.43
2023-03-27T08:40:52.966Z,5.41
2023-03-27T08:41:53.136Z,5.41
2023-03-27T08:42:52.942Z,5.43
2023-03-27T08:43:52.936Z,5.43
2023-03-27T08:44:52.923Z,5.56
2023-03-27T08:45:53.023Z,5.46
2023-03-27T08:46:52.967Z,5.50
2023-03-27T08:47:52.926Z,5.57
2023-03-27T08:48:52.904Z,5.59
2023-03-27T08:49:52.888Z,5.79
2023-03-27T08:50:52.885Z,5.89
2023-03-27T08:51:52.876Z,5.84
2023-03-27T08:52:52.880Z,5.98
2023-03-27T08:53:52.890Z,5.94
2023-03-27T08:54:52.856Z,5.91
2023-03-27T08:55:52.848Z,5.82
2023-03-27T08:56:52.967Z,5.56
2023-03-27T08:57:52.868Z,5.59
2023-03-27T08:58:52.828Z,5.62
2023-03-27T08:59:52.824Z,5.53
2023-03-27T09:00:52.816Z,5.54
2023-03-27T09:01:52.905Z,5.62
2023-03-27T09:02:52.883Z,5.64
2023-03-27T09:03:52.854Z,5.62
2023-03-27T09:04:52.792Z,5.65
2023-03-27T09:05:52.788Z,5.54
2023-03-27T09:06:52.781Z,5.61
2023-03-27T09:07:52.778Z,5.64
2023-03-27T09:08:52.763Z,5.65
2023-03-27T09:09:52.817Z,5.54
2023-03-27T09:10:52.754Z,5.65
2023-03-27T09:11:52.750Z,5.56
2023-03-27T09:12:52.750Z,5.75
2023-03-27T09:13:52.766Z,5.83
2023-03-27T09:14:52.730Z,5.83
2023-03-27T09:15:52.854Z,5.86
2023-03-27T09:16:52.713Z,5.90
2023-03-27T09:17:52.799Z,6.04
2023-03-27T09:18:52.705Z,6.04
2023-03-27T09:19:52.698Z,5.97
2023-03-27T09:20:52.693Z,6.09
2023-03-27T09:21:52.756Z,6.01
2023-03-27T09:22:52.701Z,6.05
2023-03-27T09:23:52.666Z,6.07
2023-03-27T09:24:52.655Z,6.01
2023-03-27T09:25:52.670Z,5.97
2023-03-27T09:27:04.453Z,5.91
2023-03-27T09:27:52.639Z,5.86
2023-03-27T09:28:52.629Z,5.82
2023-03-27T09:29:52.625Z,5.82
2023-03-27T09:30:52.619Z,5.73
2023-03-27T09:31:52.642Z,5.72
2023-03-27T09:32:52.626Z,5.72
2023-03-27T09:33:52.600Z,5.73
2023-03-27T09:34:52.589Z,5.68
2023-03-27T09:35:52.710Z,5.66
2023-03-27T09:36:52.582Z,5.66
2023-03-27T09:37:52.606Z,5.68
2023-03-27T09:38:52.568Z,5.64
2023-03-27T09:39:52.663Z,5.62
2023-03-27T09:40:52.575Z,5.62
2023-03-27T09:41:52.590Z,5.61
2023-03-27T09:42:52.544Z,5.57
2023-03-27T09:43:52.574Z,5.59
2023-03-27T09:44:52.564Z,5.64
2023-03-27T09:45:52.548Z,5.57
2023-03-27T09:46:52.564Z,5.56
2023-03-27T09:47:52.596Z,5.53
2023-03-27T09:48:52.543Z,5.53
2023-03-27T09:49:52.495Z,5.59
2023-03-27T09:50:52.482Z,5.53
2023-03-27T09:51:52.499Z,5.80
2023-03-27T09:52:52.480Z,5.91
2023-03-27T09:53:52.485Z,6.01
2023-03-27T09:54:52.459Z,6.04
2023-03-27T09:55:52.456Z,6.08
2023-03-27T09:56:52.531Z,6.01
2023-03-27T09:57:52.485Z,5.94
2023-03-27T09:58:52.432Z,5.86
2023-03-27T09:59:52.428Z,5.75
2023-03-27T10:00:52.440Z,5.69
2023-03-27T10:01:52.415Z,5.56
2023-03-27T10:02:52.467Z,5.43
2023-03-27T10:03:52.429Z,5.32
2023-03-27T10:04:52.397Z,5.25
2023-03-27T10:05:52.396Z,5.23
2023-03-27T10:06:52.398Z,5.23
2023-03-27T10:07:52.378Z,5.21
2023-03-27T10:08:52.387Z,5.21
2023-03-27T10:09:52.461Z,5.08
2023-03-27T10:10:52.359Z,5.17
2023-03-27T10:11:52.398Z,5.21
2023-03-27T10:12:52.344Z,5.14
2023-03-27T10:13:52.368Z,5.28
2023-03-27T10:14:52.833Z,5.46
2023-03-27T10:15:52.327Z,5.62
2023-03-27T10:16:52.383Z,5.69
2023-03-27T10:17:52.359Z,5.68
2023-03-27T10:18:52.312Z,5.82
2023-03-27T10:19:52.290Z,5.90
2023-03-27T10:20:52.292Z,5.99
2023-03-27T10:21:52.284Z,5.94
2023-03-27T10:22:54.484Z,6.14
2023-03-27T10:23:52.262Z,6.09
2023-03-27T10:24:52.271Z,6.09
2023-03-27T10:25:52.249Z,6.16
2023-03-27T10:26:52.252Z,6.17
2023-03-27T10:27:52.245Z,6.22
2023-03-27T10:28:52.240Z,6.36
2023-03-27T10:29:52.243Z,6.45
2023-03-27T10:30:52.223Z,6.57
2023-03-27T10:31:52.284Z,6.57
2023-03-27T10:32:52.297Z,6.69
2023-03-27T10:33:52.214Z,6.77
2023-03-27T10:34:52.188Z,6.87
2023-03-27T10:35:52.215Z,6.77
2023-03-27T10:36:52.175Z,6.75
2023-03-27T10:37:52.196Z,6.74
2023-03-27T10:38:52.209Z,6.60
2023-03-27T10:39:52.158Z,6.36
2023-03-27T10:40:52.153Z,6.14
2023-03-27T10:41:52.150Z,6.01
2023-03-27T10:42:52.136Z,5.83
2023-03-27T10:43:52.132Z,5.65
2023-03-27T10:44:52.125Z,5.51
2023-03-27T10:45:52.203Z,5.48
2023-03-27T10:46:52.512Z,5.29
2023-03-27T10:47:52.175Z,5.07
2023-03-27T10:48:52.109Z,4.84
2023-03-27T10:49:52.090Z,4.84
2023-03-27T10:50:52.085Z,4.73
2023-03-27T10:51:52.075Z,4.68
2023-03-27T10:52:52.096Z,4.70
2023-03-27T10:53:52.290Z,4.70
2023-03-27T10:54:52.059Z,4.74
2023-03-27T10:55:52.075Z,4.71
2023-03-27T10:56:52.105Z,4.71
2023-03-27T10:57:52.035Z,4.71
2023-03-27T10:58:52.063Z,4.62
2023-03-27T10:59:52.026Z,4.48
2023-03-27T11:00:52.014Z,4.34
2023-03-27T11:01:52.061Z,4.24
2023-03-27T11:02:52.041Z,4.14
2023-03-27T11:03:52.090Z,4.06
2023-03-27T11:04:51.988Z,4.01
2023-03-27T11:05:51.995Z,3.91
2023-03-27T11:06:51.977Z,3.94
2023-03-27T11:07:51.963Z,3.88
2023-03-27T11:08:51.968Z,3.86
2023-03-27T11:09:51.955Z,3.98
2023-03-27T11:10:51.943Z,4.01
2023-03-27T11:11:51.935Z,3.98
2023-03-27T11:12:51.933Z,3.99
2023-03-27T11:13:51.930Z,4.08
2023-03-27T11:14:51.917Z,4.10
2023-03-27T11:15:51.904Z,4.13
2023-03-27T11:16:51.927Z,4.19
2023-03-27T11:17:51.984Z,4.30
2023-03-27T11:18:51.888Z,4.26
2023-03-27T11:19:51.879Z,4.38
2023-03-27T11:20:51.876Z,4.52
2023-03-27T11:21:51.863Z,4.71
2023-03-27T11:22:51.857Z,4.70
2023-03-27T11:23:51.899Z,4.80
2023-03-27T11:24:51.848Z,4.99
2023-03-27T11:25:51.864Z,5.14
2023-03-27T11:26:51.829Z,5.25
2023-03-27T11:27:51.824Z,5.44
2023-03-27T11:28:51.818Z,5.51
2023-03-27T11:29:51.808Z,5.53
2023-03-27T11:30:51.817Z,5.48
2023-03-27T11:31:51.882Z,5.61
2023-03-27T11:32:51.805Z,5.59
2023-03-27T11:33:51.804Z,5.59
2023-03-27T11:34:51.775Z,5.33
2023-03-27T11:35:51.827Z,5.15
2023-03-27T11:36:51.762Z,4.94
2023-03-27T11:37:51.755Z,4.84
2023-03-27T11:38:51.751Z,4.66
2023-03-27T11:39:51.744Z,4.55
2023-03-27T11:40:51.739Z,4.42
2023-03-27T11:41:51.732Z,4.38
2023-03-27T11:42:51.726Z,4.38
2023-03-27T11:43:51.717Z,4.40
2023-03-27T11:44:51.713Z,4.31
2023-03-27T11:45:51.737Z,4.22
2023-03-27T11:46:51.697Z,4.28
2023-03-27T11:47:51.747Z,4.31
2023-03-27T11:48:51.684Z,4.24
2023-03-27T11:49:51.699Z,4.26
2023-03-27T11:50:51.681Z,4.20
2023-03-27T11:51:52.121Z,4.17
2023-03-27T11:52:51.662Z,4.31
2023-03-27T11:53:51.648Z,4.35
2023-03-27T11:54:51.643Z,4.34
2023-03-27T11:55:51.633Z,4.37
2023-03-27T11:56:51.669Z,4.37
2023-03-27T11:57:51.639Z,4.38
2023-03-27T11:58:51.630Z,4.38
2023-03-27T11:59:51.619Z,4.40
2023-03-27T12:00:51.604Z,4.37
2023-03-27T12:01:51.636Z,4.35
2023-03-27T12:02:51.636Z,4.52
2023-03-27T12:03:51.664Z,4.55
2023-03-27T12:04:51.575Z,4.56
2023-03-27T12:05:51.594Z,4.53
2023-03-27T12:06:51.557Z,4.56
2023-03-27T12:07:51.572Z,4.59
2023-03-27T12:08:51.551Z,4.74
2023-03-27T12:09:51.538Z,4.84
2023-03-27T12:10:51.539Z,4.84
2023-03-27T12:11:51.525Z,5.00
2023-03-27T12:12:51.517Z,4.99
2023-03-27T12:14:01.188Z,4.97
2023-03-27T12:14:51.509Z,5.07
2023-03-27T12:15:51.508Z,5.20
2023-03-27T12:16:51.512Z,5.15
2023-03-27T12:17:51.532Z,5.25
2023-03-27T12:19:02.213Z,5.29
2023-03-27T12:19:51.469Z,5.47
2023-03-27T12:20:53.563Z,5.28
2023-03-27T12:21:51.489Z,5.43
2023-03-27T12:22:51.460Z,5.56
2023-03-27T12:23:51.443Z,5.64
2023-03-27T12:24:59.285Z,5.56
2023-03-27T12:25:51.436Z,5.73
2023-03-27T12:26:51.430Z,5.76
2023-03-27T12:27:51.416Z,5.80
2023-03-27T12:28:51.436Z,5.91
2023-03-27T12:29:51.405Z,5.87
2023-03-27T12:30:51.399Z,5.98
2023-03-27T12:31:51.493Z,6.02
2023-03-27T12:32:53.338Z,6.16
2023-03-27T12:33:51.377Z,6.28
2023-03-27T12:34:51.379Z,6.35
2023-03-27T12:35:51.470Z,6.42
2023-03-27T12:36:51.355Z,6.51
2023-03-27T12:37:51.383Z,6.48
2023-03-27T12:38:51.355Z,6.46
2023-03-27T12:39:52.010Z,6.46
2023-03-27T12:40:51.335Z,6.39
2023-03-27T12:41:51.324Z,6.17
2023-03-27T12:42:51.319Z,5.87
2023-03-27T12:43:51.314Z,5.65
2023-03-27T12:44:51.304Z,5.61
2023-03-27T12:45:53.643Z,5.43
2023-03-27T12:46:51.332Z,5.39
2023-03-27T12:47:51.321Z,5.36
2023-03-27T12:48:51.277Z,5.29
2023-03-27T12:49:51.271Z,5.14
2023-03-27T12:50:51.270Z,4.97
2023-03-27T12:51:51.312Z,4.94
2023-03-27T12:52:51.249Z,4.80
2023-03-27T12:53:51.332Z,4.73
2023-03-27T12:54:51.238Z,4.62
2023-03-27T12:55:51.226Z,4.49
2023-03-27T12:56:51.646Z,4.52
2023-03-27T12:57:51.303Z,4.50
2023-03-27T12:58:51.208Z,4.44
2023-03-27T12:59:51.202Z,4.53
2023-03-27T13:00:51.197Z,4.56
2023-03-27T13:01:52.567Z,4.55
2023-03-27T13:02:51.269Z,4.53
2023-03-27T13:03:51.272Z,4.53
2023-03-27T13:04:51.170Z,4.58
2023-03-27T13:05:51.162Z,4.56
2023-03-27T13:06:51.156Z,4.55
2023-03-27T13:07:53.516Z,4.74
2023-03-27T13:08:51.138Z,4.82
2023-03-27T13:09:51.157Z,4.92
2023-03-27T13:10:51.128Z,4.93
2023-03-27T13:11:51.133Z,4.99
2023-03-27T13:12:51.114Z,5.18
2023-03-27T13:13:51.106Z,5.32
2023-03-27T13:14:51.101Z,5.47
2023-03-27T13:15:51.142Z,5.44
2023-03-27T13:16:51.103Z,5.56
2023-03-27T13:17:51.117Z,5.62
2023-03-27T13:18:52.240Z,5.54
2023-03-27T13:19:51.064Z,5.64